sensor_id;sensor_type;location;lat;lon;timestamp;pressure;altitude;pressure_sealevel;temperature;humidity
20013;BME280;10167;42.852;23.042;2023-02-28T00:00:32;95331.00;;;5.50;100.00
20013;BME280;10167;42.852;23.042;2023-02-28T00:03:03;95331.19;;;5.48;100.00
20013;BME280;10167;42.852;23.042;2023-02-28T00:05:33;95335.66;;;5.54;100.00
20013;BME280;10167;42.852;23.042;2023-02-28T00:08:03;95346.13;;;5.47;100.00
20013;BME280;10167;42.852;23.042;2023-02-28T00:10:32;95341.03;;;5.39;100.00
20013;BME280;10167;42.852;23.042;2023-02-28T00:13:03;95338.19;;;5.34;100.00
20013;BME280;10167;42.852;23.042;2023-02-28T00:15:34;95346.66;;;5.30;100.00
20013;BME280;10167;42.852;23.042;2023-02-28T00:18:05;95339.97;;;5.27;100.00
20013;BME280;10167;42.852;23.042;2023-02-28T00:20:34;95350.84;;;5.24;100.00
20013;BME280;10167;42.852;23.042;2023-02-28T00:23:03;95356.88;;;5.18;100.00
20013;BME280;10167;42.852;23.042;2023-02-28T00:25:33;95364.25;;;5.08;100.00
20013;BME280;10167;42.852;23.042;2023-02-28T00:28:02;95356.25;;;5.16;100.00
20013;BME280;10167;42.852;23.042;2023-02-28T00:30:32;95351.19;;;5.15;100.00
20013;BME280;10167;42.852;23.042;2023-02-28T00:33:06;95362.31;;;5.17;100.00
20013;BME280;10167;42.852;23.042;2023-02-28T00:35:35;95362.50;;;5.15;100.00
20013;BME280;10167;42.852;23.042;2023-02-28T00:38:05;95362.03;;;5.05;100.00
20013;BME280;10167;42.852;23.042;2023-02-28T00:40:34;95371.47;;;4.99;100.00
20013;BME280;10167;42.852;23.042;2023-02-28T00:43:04;95357.47;;;4.92;100.00
20013;BME280;10167;42.852;23.042;2023-02-28T00:45:33;95355.50;;;4.94;100.00
20013;BME280;10167;42.852;23.042;2023-02-28T00:48:05;95357.47;;;4.92;100.00
20013;BME280;10167;42.852;23.042;2023-02-28T00:50:35;95356.31;;;4.95;100.00
20013;BME280;10167;42.852;23.042;2023-02-28T00:53:04;95361.97;;;4.98;100.00
20013;BME280;10167;42.852;23.042;2023-02-28T00:55:33;95366.66;;;5.03;100.00
20013;BME280;10167;42.852;23.042;2023-02-28T00:58:04;95359.53;;;4.97;100.00
20013;BME280;10167;42.852;23.042;2023-02-28T01:00:33;95358.47;;;4.91;100.00
20013;BME280;10167;42.852;23.042;2023-02-28T01:03:02;95359.03;;;4.87;100.00
20013;BME280;10167;42.852;23.042;2023-02-28T01:05:33;95361.06;;;4.85;100.00
20013;BME280;10167;42.852;23.042;2023-02-28T01:08:02;95364.06;;;4.82;100.00
20013;BME280;10167;42.852;23.042;2023-02-28T01:10:31;95359.38;;;4.77;100.00
20013;BME280;10167;42.852;23.042;2023-02-28T01:13:01;95354.94;;;4.78;100.00
20013;BME280;10167;42.852;23.042;2023-02-28T01:15:31;95351.94;;;4.81;100.00
20013;BME280;10167;42.852;23.042;2023-02-28T01:18:00;95352.25;;;4.92;100.00
20013;BME280;10167;42.852;23.042;2023-02-28T01:20:32;95353.38;;;4.83;100.00
20013;BME280;10167;42.852;23.042;2023-02-28T01:23:01;95349.50;;;4.79;100.00
20013;BME280;10167;42.852;23.042;2023-02-28T01:25:30;95341.38;;;4.95;100.00
20013;BME280;10167;42.852;23.042;2023-02-28T01:28:05;95343.09;;;4.88;100.00
20013;BME280;10167;42.852;23.042;2023-02-28T01:30:34;95330.88;;;4.95;100.00
20013;BME280;10167;42.852;23.042;2023-02-28T01:33:03;95339.16;;;4.99;100.00
20013;BME280;10167;42.852;23.042;2023-02-28T01:35:34;95345.47;;;5.04;100.00
20013;BME280;10167;42.852;23.042;2023-02-28T01:38:04;95351.13;;;5.08;100.00
20013;BME280;10167;42.852;23.042;2023-02-28T01:40:47;95357.63;;;5.12;100.00
20013;BME280;10167;42.852;23.042;2023-02-28T01:43:24;95350.13;;;5.09;100.00
20013;BME280;10167;42.852;23.042;2023-02-28T01:45:56;95341.25;;;5.10;100.00
20013;BME280;10167;42.852;23.042;2023-02-28T01:48:27;95339.03;;;5.07;100.00
20013;BME280;10167;42.852;23.042;2023-02-28T01:51:05;95342.25;;;5.09;100.00
20013;BME280;10167;42.852;23.042;2023-02-28T01:53:40;95338.59;;;5.03;100.00
20013;BME280;10167;42.852;23.042;2023-02-28T01:56:12;95340.25;;;5.11;100.00
20013;BME280;10167;42.852;23.042;2023-02-28T01:58:51;95345.94;;;5.15;100.00
20013;BME280;10167;42.852;23.042;2023-02-28T02:01:24;95349.59;;;5.20;100.00
20013;BME280;10167;42.852;23.042;2023-02-28T02:03:57;95344.78;;;5.24;100.00
20013;BME280;10167;42.852;23.042;2023-02-28T02:06:32;95350.63;;;5.19;100.00
20013;BME280;10167;42.852;23.042;2023-02-28T02:09:03;95346.22;;;5.26;100.00
20013;BME280;10167;42.852;23.042;2023-02-28T02:11:32;95352.03;;;5.22;100.00
20013;BME280;10167;42.852;23.042;2023-02-28T02:17:17;95338.72;;;5.23;100.00
20013;BME280;10167;42.852;23.042;2023-02-28T02:23:15;95347.31;;;5.38;100.00
20013;BME280;10167;42.852;23.042;2023-02-28T02:25:53;95346.09;;;5.41;100.00
20013;BME280;10167;42.852;23.042;2023-02-28T02:28:39;95347.75;;;5.48;100.00
20013;BME280;10167;42.852;23.042;2023-02-28T02:31:56;95341.69;;;5.48;100.00
20013;BME280;10167;42.852;23.042;2023-02-28T02:34:43;95342.69;;;5.47;100.00
20013;BME280;10167;42.852;23.042;2023-02-28T02:37:25;95337.91;;;5.57;100.00
20013;BME280;10167;42.852;23.042;2023-02-28T02:40:03;95346.22;;;5.61;100.00
20013;BME280;10167;42.852;23.042;2023-02-28T02:42:45;95334.91;;;5.67;100.00
20013;BME280;10167;42.852;23.042;2023-02-28T02:45:22;95339.13;;;5.61;100.00
20013;BME280;10167;42.852;23.042;2023-02-28T02:47:55;95336.59;;;5.81;100.00
20013;BME280;10167;42.852;23.042;2023-02-28T02:50:31;95343.09;;;5.85;100.00
20013;BME280;10167;42.852;23.042;2023-02-28T02:53:03;95347.38;;;5.93;100.00
20013;BME280;10167;42.852;23.042;2023-02-28T02:55:37;95351.00;;;5.92;100.00
20013;BME280;10167;42.852;23.042;2023-02-28T02:58:12;95348.34;;;5.85;100.00
20013;BME280;10167;42.852;23.042;2023-02-28T03:00:45;95359.31;;;5.95;100.00
20013;BME280;10167;42.852;23.042;2023-02-28T03:03:16;95356.47;;;5.90;100.00
20013;BME280;10167;42.852;23.042;2023-02-28T03:05:50;95355.06;;;5.94;100.00
20013;BME280;10167;42.852;23.042;2023-02-28T03:08:19;95357.91;;;5.99;100.00
20013;BME280;10167;42.852;23.042;2023-02-28T03:10:49;95346.63;;;6.05;100.00
20013;BME280;10167;42.852;23.042;2023-02-28T03:13:34;95353.69;;;6.05;100.00
20013;BME280;10167;42.852;23.042;2023-02-28T03:16:38;95366.47;;;6.08;100.00
20013;BME280;10167;42.852;23.042;2023-02-28T03:19:28;95367.84;;;6.10;100.00
20013;BME280;10167;42.852;23.042;2023-02-28T03:22:19;95361.81;;;6.16;100.00
20013;BME280;10167;42.852;23.042;2023-02-28T03:24:56;95362.22;;;6.13;100.00
20013;BME280;10167;42.852;23.042;2023-02-28T03:27:39;95366.28;;;6.16;100.00
20013;BME280;10167;42.852;23.042;2023-02-28T03:30:14;95370.34;;;6.25;100.00
20013;BME280;10167;42.852;23.042;2023-02-28T03:32:53;95381.69;;;6.32;100.00
20013;BME280;10167;42.852;23.042;2023-02-28T03:35:26;95379.09;;;6.39;100.00
20013;BME280;10167;42.852;23.042;2023-02-28T03:38:00;95379.69;;;6.41;100.00
20013;BME280;10167;42.852;23.042;2023-02-28T03:40:37;95378.66;;;6.35;100.00
20013;BME280;10167;42.852;23.042;2023-02-28T03:43:10;95382.13;;;6.42;100.00
20013;BME280;10167;42.852;23.042;2023-02-28T03:45:43;95376.25;;;6.47;100.00
20013;BME280;10167;42.852;23.042;2023-02-28T03:48:16;95376.06;;;6.42;100.00
20013;BME280;10167;42.852;23.042;2023-02-28T03:50:49;95382.94;;;6.43;100.00
20013;BME280;10167;42.852;23.042;2023-02-28T03:53:27;95397.91;;;6.42;100.00
20013;BME280;10167;42.852;23.042;2023-02-28T03:56:01;95396.50;;;6.46;100.00
20013;BME280;10167;42.852;23.042;2023-02-28T03:58:39;95394.47;;;6.42;100.00
20013;BME280;10167;42.852;23.042;2023-02-28T04:01:13;95400.09;;;6.32;100.00
20013;BME280;10167;42.852;23.042;2023-02-28T04:03:45;95395.28;;;6.49;100.00
20013;BME280;10167;42.852;23.042;2023-02-28T04:06:17;95400.13;;;6.45;100.00
20013;BME280;10167;42.852;23.042;2023-02-28T04:08:49;95409.44;;;6.48;100.00
20013;BME280;10167;42.852;23.042;2023-02-28T04:11:35;95412.50;;;6.51;100.00
20013;BME280;10167;42.852;23.042;2023-02-28T04:14:06;95411.69;;;6.57;100.00
20013;BME280;10167;42.852;23.042;2023-02-28T04:16:38;95406.66;;;6.63;100.00
20013;BME280;10167;42.852;23.042;2023-02-28T04:19:10;95414.38;;;6.64;100.00
20013;BME280;10167;42.852;23.042;2023-02-28T04:21:43;95419.44;;;6.72;100.00
20013;BME280;10167;42.852;23.042;2023-02-28T04:24:17;95427.72;;;6.63;100.00
20013;BME280;10167;42.852;23.042;2023-02-28T04:26:48;95420.78;;;6.55;100.00
20013;BME280;10167;42.852;23.042;2023-02-28T04:29:20;95427.72;;;6.69;100.00
20013;BME280;10167;42.852;23.042;2023-02-28T04:31:50;95421.44;;;6.70;100.00
20013;BME280;10167;42.852;23.042;2023-02-28T04:34:21;95427.72;;;6.69;100.00
20013;BME280;10167;42.852;23.042;2023-02-28T04:36:52;95412.53;;;6.71;100.00
20013;BME280;10167;42.852;23.042;2023-02-28T04:39:41;95408.91;;;6.72;100.00
20013;BME280;10167;42.852;23.042;2023-02-28T04:42:11;95404.06;;;6.82;100.00
20013;BME280;10167;42.852;23.042;2023-02-28T04:44:42;95405.06;;;6.81;100.00
20013;BME280;10167;42.852;23.042;2023-02-28T04:47:11;95412.16;;;6.74;100.00
20013;BME280;10167;42.852;23.042;2023-02-28T04:49:40;95418.03;;;6.76;100.00
20013;BME280;10167;42.852;23.042;2023-02-28T04:52:11;95414.97;;;6.73;100.00
20013;BME280;10167;42.852;23.042;2023-02-28T04:54:42;95417.22;;;6.76;100.00
20013;BME280;10167;42.852;23.042;2023-02-28T04:57:11;95421.47;;;6.77;100.00
20013;BME280;10167;42.852;23.042;2023-02-28T04:59:40;95417.41;;;6.81;100.00
20013;BME280;10167;42.852;23.042;2023-02-28T05:02:09;95422.72;;;6.87;100.00
20013;BME280;10167;42.852;23.042;2023-02-28T05:04:38;95419.47;;;6.85;100.00
20013;BME280;10167;42.852;23.042;2023-02-28T05:07:07;95423.50;;;6.88;100.00
20013;BME280;10167;42.852;23.042;2023-02-28T05:09:37;95427.97;;;6.94;100.00
20013;BME280;10167;42.852;23.042;2023-02-28T05:12:08;95425.94;;;6.96;100.00
20013;BME280;10167;42.852;23.042;2023-02-28T05:14:38;95435.25;;;6.92;100.00
20013;BME280;10167;42.852;23.042;2023-02-28T05:17:08;95438.50;;;6.94;100.00
20013;BME280;10167;42.852;23.042;2023-02-28T05:19:38;95436.69;;;6.95;100.00
20013;BME280;10167;42.852;23.042;2023-02-28T05:22:13;95441.94;;;6.95;100.00
20013;BME280;10167;42.852;23.042;2023-02-28T05:24:43;95437.28;;;6.97;100.00
20013;BME280;10167;42.852;23.042;2023-02-28T05:27:14;95441.94;;;6.95;100.00
20013;BME280;10167;42.852;23.042;2023-02-28T05:29:44;95447.41;;;6.93;100.00
20013;BME280;10167;42.852;23.042;2023-02-28T05:32:13;95436.69;;;6.95;100.00
20013;BME280;10167;42.852;23.042;2023-02-28T05:34:42;95443.19;;;6.99;100.00
20013;BME280;10167;42.852;23.042;2023-02-28T05:37:14;95455.91;;;6.95;100.00
20013;BME280;10167;42.852;23.042;2023-02-28T05:39:44;95443.75;;;6.94;100.00
20013;BME280;10167;42.852;23.042;2023-02-28T05:42:14;95444.97;;;6.91;100.00
20013;BME280;10167;42.852;23.042;2023-02-28T05:44:43;95443.16;;;6.92;100.00
20013;BME280;10167;42.852;23.042;2023-02-28T05:47:12;95446.78;;;6.91;100.00
20013;BME280;10167;42.852;23.042;2023-02-28T05:49:43;95451.47;;;6.96;100.00
20013;BME280;10167;42.852;23.042;2023-02-28T05:52:12;95454.09;;;7.02;100.00
20013;BME280;10167;42.852;23.042;2023-02-28T05:54:41;95458.97;;;6.99;100.00
20013;BME280;10167;42.852;23.042;2023-02-28T05:57:10;95449.44;;;6.98;100.00
20013;BME280;10167;42.852;23.042;2023-02-28T05:59:52;95457.97;;;7.00;100.00
20013;BME280;10167;42.852;23.042;2023-02-28T06:02:22;95460.78;;;7.05;100.00
20013;BME280;10167;42.852;23.042;2023-02-28T06:04:51;95463.22;;;7.06;100.00
20013;BME280;10167;42.852;23.042;2023-02-28T06:07:20;95465.84;;;7.13;100.00
20013;BME280;10167;42.852;23.042;2023-02-28T06:09:50;95466.69;;;7.20;100.00
20013;BME280;10167;42.852;23.042;2023-02-28T06:12:19;95470.13;;;7.07;100.00
20013;BME280;10167;42.852;23.042;2023-02-28T06:14:48;95469.91;;;7.15;100.00
20013;BME280;10167;42.852;23.042;2023-02-28T06:17:19;95470.13;;;7.14;100.00
20013;BME280;10167;42.852;23.042;2023-02-28T06:19:48;95473.75;;;7.13;100.00
20013;BME280;10167;42.852;23.042;2023-02-28T06:22:17;95478.44;;;7.24;100.00
20013;BME280;10167;42.852;23.042;2023-02-28T06:24:46;95480.47;;;7.22;100.00
20013;BME280;10167;42.852;23.042;2023-02-28T06:27:15;95490.78;;;7.10;100.00
20013;BME280;10167;42.852;23.042;2023-02-28T06:29:44;95485.53;;;7.17;100.00
20013;BME280;10167;42.852;23.042;2023-02-28T06:32:13;95489.56;;;7.13;100.00
20013;BME280;10167;42.852;23.042;2023-02-28T06:34:44;95485.09;;;7.07;100.00
20013;BME280;10167;42.852;23.042;2023-02-28T06:37:13;95495.25;;;7.16;100.00
20013;BME280;10167;42.852;23.042;2023-02-28T06:39:43;95494.81;;;7.13;100.00
20013;BME280;10167;42.852;23.042;2023-02-28T06:42:12;95491.56;;;7.04;100.00
20013;BME280;10167;42.852;23.042;2023-02-28T06:44:41;95495.03;;;7.05;100.00
20013;BME280;10167;42.852;23.042;2023-02-28T06:47:10;95499.66;;;7.03;100.00
20013;BME280;10167;42.852;23.042;2023-02-28T06:49:39;95500.50;;;7.10;100.00
20013;BME280;10167;42.852;23.042;2023-02-28T06:52:11;95502.72;;;7.13;100.00
20013;BME280;10167;42.852;23.042;2023-02-28T06:54:40;95493.41;;;7.23;100.00
20013;BME280;10167;42.852;23.042;2023-02-28T06:57:09;95506.41;;;7.32;100.00
20013;BME280;10167;42.852;23.042;2023-02-28T06:59:38;95499.50;;;7.11;100.00
20013;BME280;10167;42.852;23.042;2023-02-28T07:02:08;95498.91;;;7.22;100.00
20013;BME280;10167;42.852;23.042;2023-02-28T07:04:38;95497.88;;;7.23;100.00
20013;BME280;10167;42.852;23.042;2023-02-28T07:07:08;95505.41;;;7.33;100.00
20013;BME280;10167;42.852;23.042;2023-02-28T07:09:39;95515.31;;;7.37;100.00
20013;BME280;10167;42.852;23.042;2023-02-28T07:12:08;95505.00;;;7.42;100.00
20013;BME280;10167;42.852;23.042;2023-02-28T07:14:37;95500.72;;;7.28;100.00
20013;BME280;10167;42.852;23.042;2023-02-28T07:17:07;95515.53;;;7.42;100.00
20013;BME280;10167;42.852;23.042;2023-02-28T07:19:36;95495.06;;;7.31;100.00
20013;BME280;10167;42.852;23.042;2023-02-28T07:22:05;95503.97;;;7.50;100.00
20013;BME280;10167;42.852;23.042;2023-02-28T07:24:35;95505.59;;;7.51;100.00
20013;BME280;10167;42.852;23.042;2023-02-28T07:27:05;95501.16;;;7.45;100.00
20013;BME280;10167;42.852;23.042;2023-02-28T07:29:34;95500.53;;;7.36;100.00
20013;BME280;10167;42.852;23.042;2023-02-28T07:32:04;95498.13;;;7.54;100.00
20013;BME280;10167;42.852;23.042;2023-02-28T07:34:34;95499.53;;;7.50;100.00
20013;BME280;10167;42.852;23.042;2023-02-28T07:37:03;95494.84;;;7.59;100.00
20013;BME280;10167;42.852;23.042;2023-02-28T07:39:32;95491.81;;;7.69;100.00
20013;BME280;10167;42.852;23.042;2023-02-28T07:42:05;95495.47;;;7.74;100.00
20013;BME280;10167;42.852;23.042;2023-02-28T07:44:39;95500.13;;;7.72;100.00
20013;BME280;10167;42.852;23.042;2023-02-28T07:47:10;95497.06;;;7.82;100.00
20013;BME280;10167;42.852;23.042;2023-02-28T07:49:41;95500.53;;;7.89;100.00
20013;BME280;10167;42.852;23.042;2023-02-28T07:52:11;95502.56;;;7.87;100.00
20013;BME280;10167;42.852;23.042;2023-02-28T07:54:43;95505.19;;;8.00;100.00
20013;BME280;10167;42.852;23.042;2023-02-28T07:57:14;95510.03;;;8.03;100.00
20013;BME280;10167;42.852;23.042;2023-02-28T07:59:43;95515.31;;;8.03;100.00
20013;BME280;10167;42.852;23.042;2023-02-28T08:02:13;95518.53;;;8.05;100.00
20013;BME280;10167;42.852;23.042;2023-02-28T08:04:43;95514.28;;;8.04;100.00
20013;BME280;10167;42.852;23.042;2023-02-28T08:07:12;95520.78;;;8.08;100.00
20013;BME280;10167;42.852;23.042;2023-02-28T08:09:42;95519.94;;;8.14;100.00
20013;BME280;10167;42.852;23.042;2023-02-28T08:12:12;95518.75;;;8.10;100.00
20013;BME280;10167;42.852;23.042;2023-02-28T08:14:42;95517.97;;;7.96;100.00
20013;BME280;10167;42.852;23.042;2023-02-28T08:17:11;95517.31;;;8.14;100.00
20013;BME280;10167;42.852;23.042;2023-02-28T08:19:41;95524.03;;;8.10;100.00
20013;BME280;10167;42.852;23.042;2023-02-28T08:22:10;95519.13;;;8.20;100.00
20013;BME280;10167;42.852;23.042;2023-02-28T08:24:40;95527.88;;;8.08;100.00
20013;BME280;10167;42.852;23.042;2023-02-28T08:27:11;95522.19;;;8.17;100.00
20013;BME280;10167;42.852;23.042;2023-02-28T08:29:43;95521.78;;;8.20;100.00
20013;BME280;10167;42.852;23.042;2023-02-28T08:32:12;95520.38;;;8.11;100.00
20013;BME280;10167;42.852;23.042;2023-02-28T08:34:56;95522.78;;;8.19;100.00
20013;BME280;10167;42.852;23.042;2023-02-28T08:37:25;95512.22;;;8.26;100.00
20013;BME280;10167;42.852;23.042;2023-02-28T08:40:15;95519.53;;;8.30;100.00
20013;BME280;10167;42.852;23.042;2023-02-28T08:42:46;95522.16;;;8.37;100.00
20013;BME280;10167;42.852;23.042;2023-02-28T08:45:17;95517.31;;;8.34;100.00
20013;BME280;10167;42.852;23.042;2023-02-28T08:47:46;95513.22;;;8.38;100.00
20013;BME280;10167;42.852;23.042;2023-02-28T08:50:15;95516.22;;;8.55;100.00
20013;BME280;10167;42.852;23.042;2023-02-28T08:52:45;95515.00;;;8.57;100.00
20013;BME280;10167;42.852;23.042;2023-02-28T08:55:14;95519.47;;;8.50;100.00
20013;BME280;10167;42.852;23.042;2023-02-28T08:57:43;95509.72;;;8.57;100.00
20013;BME280;10167;42.852;23.042;2023-02-28T09:00:13;95506.66;;;8.60;100.00
20013;BME280;10167;42.852;23.042;2023-02-28T09:02:43;95508.69;;;8.65;100.00
20013;BME280;10167;42.852;23.042;2023-02-28T09:05:12;95507.09;;;8.57;100.00
20013;BME280;10167;42.852;23.042;2023-02-28T09:07:41;95500.38;;;8.55;100.00
20013;BME280;10167;42.852;23.042;2023-02-28T09:10:11;95507.25;;;8.69;100.00
20013;BME280;10167;42.852;23.042;2023-02-28T09:12:40;95502.38;;;8.66;100.00
20013;BME280;10167;42.852;23.042;2023-02-28T09:15:10;95494.63;;;8.71;100.00
20013;BME280;10167;42.852;23.042;2023-02-28T09:17:39;95503.50;;;8.83;100.00
20013;BME280;10167;42.852;23.042;2023-02-28T09:20:12;95500.63;;;8.91;100.00
20013;BME280;10167;42.852;23.042;2023-02-28T09:22:45;95500.63;;;8.91;100.00
20013;BME280;10167;42.852;23.042;2023-02-28T09:25:14;95501.19;;;9.00;100.00
20013;BME280;10167;42.852;23.042;2023-02-28T09:27:46;95502.22;;;8.99;100.00
20013;BME280;10167;42.852;23.042;2023-02-28T09:30:16;95502.63;;;8.96;100.00
20013;BME280;10167;42.852;23.042;2023-02-28T09:32:46;95503.59;;;9.08;100.00
20013;BME280;10167;42.852;23.042;2023-02-28T09:35:23;95489.97;;;9.11;100.00
20013;BME280;10167;42.852;23.042;2023-02-28T09:37:55;95491.06;;;9.28;100.00
20013;BME280;10167;42.852;23.042;2023-02-28T09:40:26;95493.81;;;9.40;100.00
20013;BME280;10167;42.852;23.042;2023-02-28T09:42:56;95490.56;;;9.38;100.00
20013;BME280;10167;42.852;23.042;2023-02-28T09:45:30;95497.34;;;9.59;100.00
20013;BME280;10167;42.852;23.042;2023-02-28T09:48:04;95494.91;;;9.57;100.00
20013;BME280;10167;42.852;23.042;2023-02-28T09:50:40;95494.22;;;9.68;100.00
20013;BME280;10167;42.852;23.042;2023-02-28T09:53:19;95494.91;;;9.82;100.00
20013;BME280;10167;42.852;23.042;2023-02-28T09:55:53;95498.69;;;9.93;100.00
20013;BME280;10167;42.852;23.042;2023-02-28T09:58:29;95494.84;;;9.89;100.00
20013;BME280;10167;42.852;23.042;2023-02-28T10:01:05;95500.88;;;9.96;100.00
20013;BME280;10167;42.852;23.042;2023-02-28T10:03:39;95497.38;;;10.02;100.00
20013;BME280;10167;42.852;23.042;2023-02-28T10:06:14;95491.38;;;10.13;100.00
20013;BME280;10167;42.852;23.042;2023-02-28T10:08:52;95498.97;;;10.28;100.00
20013;BME280;10167;42.852;23.042;2023-02-28T10:11:26;95494.66;;;10.33;100.00
20013;BME280;10167;42.852;23.042;2023-02-28T10:14:00;95484.06;;;10.33;100.00
20013;BME280;10167;42.852;23.042;2023-02-28T10:16:35;95485.16;;;10.44;100.00
20013;BME280;10167;42.852;23.042;2023-02-28T10:19:09;95480.59;;;10.51;100.00
20013;BME280;10167;42.852;23.042;2023-02-28T10:21:46;95493.72;;;10.76;100.00
20013;BME280;10167;42.852;23.042;2023-02-28T10:24:21;95475.75;;;10.48;100.00
20013;BME280;10167;42.852;23.042;2023-02-28T10:26:52;95476.97;;;10.82;100.00
20013;BME280;10167;42.852;23.042;2023-02-28T10:29:26;95477.81;;;10.94;100.00
20013;BME280;10167;42.852;23.042;2023-02-28T10:31:56;95474.97;;;11.07;100.00
20013;BME280;10167;42.852;23.042;2023-02-28T10:34:25;95466.72;;;11.15;100.00
20013;BME280;10167;42.852;23.042;2023-02-28T10:36:55;95463.81;;;11.05;100.00
20013;BME280;10167;42.852;23.042;2023-02-28T10:39:37;95453.78;;;11.07;100.00
20013;BME280;10167;42.852;23.042;2023-02-28T10:42:23;95452.22;;;11.29;100.00
20013;BME280;10167;42.852;23.042;2023-02-28T10:45:11;95447.41;;;11.26;100.00
20013;BME280;10167;42.852;23.042;2023-02-28T10:47:50;95442.56;;;10.94;100.00
20013;BME280;10167;42.852;23.042;2023-02-28T10:50:34;95439.75;;;11.18;100.00
20013;BME280;10167;42.852;23.042;2023-02-28T10:53:14;95431.69;;;11.13;100.00
20013;BME280;10167;42.852;23.042;2023-02-28T10:55:44;95428.91;;;10.78;100.00
20013;BME280;10167;42.852;23.042;2023-02-28T10:58:21;95426.97;;;10.55;100.00
20013;BME280;10167;42.852;23.042;2023-02-28T11:00:52;95417.13;;;10.74;100.00
20013;BME280;10167;42.852;23.042;2023-02-28T11:03:29;95410.81;;;10.75;100.00
20013;BME280;10167;42.852;23.042;2023-02-28T11:06:05;95414.69;;;10.91;100.00
20013;BME280;10167;42.852;23.042;2023-02-28T11:08:44;95398.59;;;10.74;100.00
20013;BME280;10167;42.852;23.042;2023-02-28T11:11:14;95406.06;;;11.07;100.00
20013;BME280;10167;42.852;23.042;2023-02-28T11:13:46;95397.81;;;11.15;100.00
20013;BME280;10167;42.852;23.042;2023-02-28T11:16:17;95393.44;;;11.33;100.00
20013;BME280;10167;42.852;23.042;2023-02-28T11:18:48;95394.84;;;11.47;100.00
20013;BME280;10167;42.852;23.042;2023-02-28T11:21:22;95396.22;;;11.38;100.00
20013;BME280;10167;42.852;23.042;2023-02-28T11:24:00;95396.91;;;11.33;100.00
20013;BME280;10167;42.852;23.042;2023-02-28T11:26:42;95388.84;;;11.40;100.00
20013;BME280;10167;42.852;23.042;2023-02-28T11:29:18;95400.03;;;11.65;100.00
20013;BME280;10167;42.852;23.042;2023-02-28T11:32:19;95396.13;;;12.03;100.00
20013;BME280;10167;42.852;23.042;2023-02-28T11:35:02;95396.47;;;12.18;100.00
20013;BME280;10167;42.852;23.042;2023-02-28T11:37:32;95395.31;;;12.14;100.00
20013;BME280;10167;42.852;23.042;2023-02-28T11:40:08;95403.09;;;12.32;100.00
20013;BME280;10167;42.852;23.042;2023-02-28T11:42:50;95400.22;;;12.33;100.00
20013;BME280;10167;42.852;23.042;2023-02-28T11:45:36;95394.16;;;11.86;100.00
20013;BME280;10167;42.852;23.042;2023-02-28T11:48:18;95389.13;;;11.85;100.00
20013;BME280;10167;42.852;23.042;2023-02-28T11:50:58;95382.63;;;11.92;100.00
20013;BME280;10167;42.852;23.042;2023-02-28T11:53:44;95383.44;;;11.70;100.00
20013;BME280;10167;42.852;23.042;2023-02-28T11:56:25;95377.56;;;11.91;100.00
20013;BME280;10167;42.852;23.042;2023-02-28T11:59:18;95383.91;;;12.02;100.00
20013;BME280;10167;42.852;23.042;2023-02-28T12:02:16;95380.56;;;11.94;100.00
20013;BME280;10167;42.852;23.042;2023-02-28T12:04:53;95384.50;;;11.92;100.00
20013;BME280;10167;42.852;23.042;2023-02-28T12:07:34;95381.69;;;11.98;100.00
20013;BME280;10167;42.852;23.042;2023-02-28T12:10:20;95375.59;;;11.98;100.00
20013;BME280;10167;42.852;23.042;2023-02-28T12:13:01;95378.59;;;12.02;100.00
20013;BME280;10167;42.852;23.042;2023-02-28T12:15:49;95376.31;;;11.93;100.00
20013;BME280;10167;42.852;23.042;2023-02-28T12:18:40;95372.91;;;12.10;100.00
20013;BME280;10167;42.852;23.042;2023-02-28T12:21:17;95372.84;;;11.93;100.00
20013;BME280;10167;42.852;23.042;2023-02-28T12:24:03;95376.41;;;11.75;100.00
20013;BME280;10167;42.852;23.042;2023-02-28T12:26:40;95375.13;;;11.66;100.00
20013;BME280;10167;42.852;23.042;2023-02-28T12:29:17;95369.00;;;11.65;100.00
20013;BME280;10167;42.852;23.042;2023-02-28T12:31:51;95369.72;;;11.73;100.00
20013;BME280;10167;42.852;23.042;2023-02-28T12:34:28;95366.13;;;11.90;100.00
20013;BME280;10167;42.852;23.042;2023-02-28T12:37:04;95369.00;;;12.00;100.00
20013;BME280;10167;42.852;23.042;2023-02-28T12:39:39;95361.16;;;12.06;100.00
20013;BME280;10167;42.852;23.042;2023-02-28T12:42:22;95364.28;;;12.03;100.00
20013;BME280;10167;42.852;23.042;2023-02-28T12:44:56;95348.72;;;11.94;100.00
20013;BME280;10167;42.852;23.042;2023-02-28T12:47:29;95365.66;;;12.05;100.00
20013;BME280;10167;42.852;23.042;2023-02-28T12:50:02;95365.53;;;12.00;100.00
20013;BME280;10167;42.852;23.042;2023-02-28T12:52:39;95352.88;;;11.90;100.00
20013;BME280;10167;42.852;23.042;2023-02-28T12:55:14;95349.19;;;11.68;100.00
20013;BME280;10167;42.852;23.042;2023-02-28T12:57:51;95351.25;;;11.89;100.00
20013;BME280;10167;42.852;23.042;2023-02-28T13:00:32;95349.97;;;12.04;100.00
20013;BME280;10167;42.852;23.042;2023-02-28T13:06:09;95350.47;;;12.29;100.00
20013;BME280;10167;42.852;23.042;2023-02-28T13:09:04;95349.69;;;12.28;100.00
20013;BME280;10167;42.852;23.042;2023-02-28T13:11:42;95344.38;;;12.28;100.00
20013;BME280;10167;42.852;23.042;2023-02-28T13:14:26;95337.41;;;12.39;100.00
20013;BME280;10167;42.852;23.042;2023-02-28T13:17:11;95338.16;;;12.51;100.00
20013;BME280;10167;42.852;23.042;2023-02-28T13:19:44;95341.78;;;12.33;100.00
20013;BME280;10167;42.852;23.042;2023-02-28T13:22:19;95337.47;;;12.16;100.00
20013;BME280;10167;42.852;23.042;2023-02-28T13:24:51;95337.66;;;12.26;100.00
20013;BME280;10167;42.852;23.042;2023-02-28T13:27:35;95339.84;;;12.29;100.00
20013;BME280;10167;42.852;23.042;2023-02-28T13:33:33;95333.13;;;11.98;100.00